• Join FlightAware (Why Join?)
  • Login
  • US Flag 
 
12:31PM EST


 

Airport Tracker/Info


-or-


 

Live Flight TrackerFlight Track Log ✈ THY2476 ✈ 18-Jun-2013 ✈ LTBA / IST - LTAF / ADA

Flight Track Log - Related Links

Times and Time Zones

All times are in EDT time to prevent confusion due to time zone crossing. See the THY2476 flight status page for this flight to view local times or setup timezone preferences in your user account.

Time Position Orientation Groundspeed Altitude Reporting Facility
EDT Latitude Longitude Course Direction KTS MPH feet Rate Location/Type
07:10PM 39.1600 31.9218 126° Southeast  Level Estimated
07:11PM 39.0911 32.0335 128° Southeast  Level Estimated
07:12PM 39.0222 32.1450 129° Southeast  Level Estimated
07:13PM 38.9531 32.2562 129° Southeast  Level Estimated
07:14PM 38.8839 32.3673 129° Southeast  Level Estimated
07:15PM 38.8147 32.4781 129° Southeast  Level Estimated
07:16PM 38.7453 32.5888 129° Southeast  Level Estimated
07:17PM 38.6758 32.6992 129° Southeast  Level Estimated
07:18PM 38.6063 32.8093 129° Southeast  Level Estimated
07:19PM 38.5366 32.9193 129° Southeast  Level Estimated
07:20PM 38.4668 33.0291 129° Southeast  Level Estimated
07:21PM 38.3969 33.1386 129° Southeast  Level Estimated
07:22PM 38.3269 33.2480 129° Southeast  Level Estimated
07:23PM 38.2568 33.3571 129° Southeast  Level Estimated
07:24PM 38.1866 33.4660 129° Southeast  Level Estimated
07:25PM 38.1163 33.5747 129° Southeast  Level Estimated
07:26PM 38.0459 33.6832 129° Southeast  Level Estimated
07:27PM 37.9754 33.7915 130° Southeast  Level Estimated
07:28PM 37.9049 33.8996 130° Southeast  Level Estimated
07:29PM 37.8342 34.0075 130° Southeast  Level Estimated
07:30PM 37.7634 34.1152 130° Southeast  Level Estimated
07:31PM 37.6925 34.2226 130° Southeast  Level Estimated
07:32PM 37.6215 34.3299 130° Southeast  Level Estimated
07:33PM 37.5504 34.4369 130° Southeast  Level Estimated
07:34PM 37.4792 34.5438 130° Southeast  Level Estimated
07:35PM 37.4080 34.6504 130° Southeast  Level Estimated
07:36PM 37.3366 34.7569 130° Southeast  Level Estimated
07:37PM 37.2651 34.8631 130° Southeast  Level Estimated
07:38PM 37.1936 34.9691 130° Southeast  Level Estimated
07:39PM 37.1219 35.0750 130° Southeast  Level Estimated
07:40PM 37.0502 35.1806 130° Southeast  Level Estimated
07:41PM 36.9822 35.2804 130° Southeast  Level Estimated
07:42PM 36.9822 35.2804 202° Southwest  Level Estimated
07:43PM 36.9822 35.2804 202° Southwest  Level Estimated
07:44PM 36.9822 35.2804 202° Southwest  Level Estimated
07:45PM 36.9822 35.2804 202° Southwest  Level Estimated
07:46PM 36.9822 35.2804 202° Southwest  Level Estimated
07:47PM 36.9822 35.2804 202° Southwest  Level Estimated
07:48PM 36.9822 35.2804 202° Southwest  Level Estimated
07:49PM 36.9822 35.2804 202° Southwest  Level Estimated
07:50PM 36.9822 35.2804 202° Southwest  Level Estimated
07:51PM 36.9822 35.2804 202° Southwest  Level Estimated
07:52PM 36.9822 35.2804 202° Southwest  Level Estimated
07:53PM 36.9822 35.2804 202° Southwest  Level Estimated
07:54PM 36.9822 35.2804 202° Southwest  Level Estimated
07:55PM 36.9822 35.2804 202° Southwest  Level Estimated
07:56PM 36.9822 35.2804 202° Southwest  Level Estimated
07:57PM 36.9822 35.2804 202° Southwest  Level Estimated